sensor_id;sensor_type;location;lat;lon;timestamp;P1;durP1;ratioP1;P2;durP2;ratioP2
11709;SDS011;5911;51.036;6.972;2022-08-01T00:01:13;3.75;;;2.40;;
11709;SDS011;5911;51.036;6.972;2022-08-01T00:03:41;2.50;;;2.30;;
11709;SDS011;5911;51.036;6.972;2022-08-01T00:06:09;2.55;;;2.33;;
11709;SDS011;5911;51.036;6.972;2022-08-01T00:08:37;2.65;;;2.22;;
11709;SDS011;5911;51.036;6.972;2022-08-01T00:11:05;2.33;;;2.13;;
11709;SDS011;5911;51.036;6.972;2022-08-01T00:13:33;3.53;;;1.98;;
11709;SDS011;5911;51.036;6.972;2022-08-01T00:16:04;2.47;;;2.20;;
11709;SDS011;5911;51.036;6.972;2022-08-01T00:18:33;2.17;;;1.90;;
11709;SDS011;5911;51.036;6.972;2022-08-01T00:21:02;2.38;;;2.17;;
11709;SDS011;5911;51.036;6.972;2022-08-01T00:23:30;2.40;;;2.05;;
11709;SDS011;5911;51.036;6.972;2022-08-01T00:25:58;2.28;;;2.10;;
11709;SDS011;5911;51.036;6.972;2022-08-01T00:28:26;4.07;;;2.10;;
11709;SDS011;5911;51.036;6.972;2022-08-01T00:30:54;2.38;;;2.17;;
11709;SDS011;5911;51.036;6.972;2022-08-01T00:33:21;2.45;;;2.25;;
11709;SDS011;5911;51.036;6.972;2022-08-01T00:35:51;4.38;;;2.03;;
11709;SDS011;5911;51.036;6.972;2022-08-01T00:38:19;2.30;;;2.10;;
11709;SDS011;5911;51.036;6.972;2022-08-01T00:40:46;3.28;;;2.03;;
11709;SDS011;5911;51.036;6.972;2022-08-01T00:43:14;2.00;;;1.90;;
11709;SDS011;5911;51.036;6.972;2022-08-01T00:45:42;3.05;;;2.03;;
11709;SDS011;5911;51.036;6.972;2022-08-01T00:48:10;6.10;;;2.90;;
11709;SDS011;5911;51.036;6.972;2022-08-01T00:50:38;3.20;;;1.92;;
11709;SDS011;5911;51.036;6.972;2022-08-01T00:53:07;3.60;;;2.20;;
11709;SDS011;5911;51.036;6.972;2022-08-01T00:55:44;4.13;;;2.05;;
11709;SDS011;5911;51.036;6.972;2022-08-01T00:58:12;4.45;;;2.30;;
11709;SDS011;5911;51.036;6.972;2022-08-01T01:00:42;2.72;;;2.00;;
11709;SDS011;5911;51.036;6.972;2022-08-01T01:03:20;2.63;;;2.10;;
11709;SDS011;5911;51.036;6.972;2022-08-01T01:06:12;2.45;;;2.25;;
11709;SDS011;5911;51.036;6.972;2022-08-01T01:08:52;2.80;;;2.00;;
11709;SDS011;5911;51.036;6.972;2022-08-01T01:11:31;3.50;;;2.15;;
11709;SDS011;5911;51.036;6.972;2022-08-01T01:14:04;2.55;;;2.35;;
11709;SDS011;5911;51.036;6.972;2022-08-01T01:16:36;2.50;;;1.83;;
11709;SDS011;5911;51.036;6.972;2022-08-01T01:19:08;2.10;;;1.80;;
11709;SDS011;5911;51.036;6.972;2022-08-01T01:21:53;2.58;;;1.85;;
11709;SDS011;5911;51.036;6.972;2022-08-01T01:24:41;2.55;;;2.13;;
11709;SDS011;5911;51.036;6.972;2022-08-01T01:27:18;3.97;;;2.05;;
11709;SDS011;5911;51.036;6.972;2022-08-01T01:29:58;2.85;;;2.08;;
11709;SDS011;5911;51.036;6.972;2022-08-01T01:32:28;2.70;;;2.20;;
11709;SDS011;5911;51.036;6.972;2022-08-01T01:35:02;3.78;;;2.45;;
11709;SDS011;5911;51.036;6.972;2022-08-01T01:37:34;4.45;;;2.88;;
11709;SDS011;5911;51.036;6.972;2022-08-01T01:40:06;2.83;;;2.40;;
11709;SDS011;5911;51.036;6.972;2022-08-01T01:42:36;6.05;;;2.38;;
11709;SDS011;5911;51.036;6.972;2022-08-01T01:45:08;3.70;;;2.55;;
11709;SDS011;5911;51.036;6.972;2022-08-01T01:47:36;2.47;;;2.20;;
11709;SDS011;5911;51.036;6.972;2022-08-01T01:50:06;3.92;;;2.50;;
11709;SDS011;5911;51.036;6.972;2022-08-01T01:52:37;3.90;;;2.72;;
11709;SDS011;5911;51.036;6.972;2022-08-01T01:55:06;2.47;;;2.17;;
11709;SDS011;5911;51.036;6.972;2022-08-01T01:57:36;4.18;;;2.28;;
11709;SDS011;5911;51.036;6.972;2022-08-01T02:00:09;2.33;;;2.13;;
11709;SDS011;5911;51.036;6.972;2022-08-01T02:02:39;2.97;;;2.20;;
11709;SDS011;5911;51.036;6.972;2022-08-01T02:05:09;3.35;;;2.47;;
11709;SDS011;5911;51.036;6.972;2022-08-01T02:07:38;3.80;;;2.45;;
11709;SDS011;5911;51.036;6.972;2022-08-01T02:10:08;3.25;;;2.13;;
11709;SDS011;5911;51.036;6.972;2022-08-01T02:12:39;2.55;;;2.35;;
11709;SDS011;5911;51.036;6.972;2022-08-01T02:15:13;2.40;;;2.20;;
11709;SDS011;5911;51.036;6.972;2022-08-01T02:17:43;2.58;;;2.20;;
11709;SDS011;5911;51.036;6.972;2022-08-01T02:20:13;2.65;;;2.35;;
11709;SDS011;5911;51.036;6.972;2022-08-01T02:22:43;3.97;;;2.08;;
11709;SDS011;5911;51.036;6.972;2022-08-01T02:25:15;4.20;;;2.42;;
11709;SDS011;5911;51.036;6.972;2022-08-01T02:27:50;2.50;;;2.30;;
11709;SDS011;5911;51.036;6.972;2022-08-01T02:30:25;2.75;;;2.25;;
11709;SDS011;5911;51.036;6.972;2022-08-01T02:32:53;6.43;;;2.70;;
11709;SDS011;5911;51.036;6.972;2022-08-01T02:35:28;3.70;;;2.10;;
11709;SDS011;5911;51.036;6.972;2022-08-01T02:37:59;3.50;;;2.60;;
11709;SDS011;5911;51.036;6.972;2022-08-01T02:40:32;2.85;;;2.40;;
11709;SDS011;5911;51.036;6.972;2022-08-01T02:43:02;3.20;;;2.88;;
11709;SDS011;5911;51.036;6.972;2022-08-01T02:45:33;3.67;;;2.65;;
11709;SDS011;5911;51.036;6.972;2022-08-01T02:48:06;2.63;;;2.42;;
11709;SDS011;5911;51.036;6.972;2022-08-01T02:50:37;5.18;;;2.58;;
11709;SDS011;5911;51.036;6.972;2022-08-01T02:53:07;3.65;;;2.42;;
11709;SDS011;5911;51.036;6.972;2022-08-01T02:55:38;4.80;;;2.80;;
11709;SDS011;5911;51.036;6.972;2022-08-01T02:58:08;3.03;;;2.55;;
11709;SDS011;5911;51.036;6.972;2022-08-01T03:00:39;3.83;;;2.90;;
11709;SDS011;5911;51.036;6.972;2022-08-01T03:03:13;5.88;;;2.88;;
11709;SDS011;5911;51.036;6.972;2022-08-01T03:05:43;4.13;;;2.50;;
11709;SDS011;5911;51.036;6.972;2022-08-01T03:08:12;5.40;;;3.10;;
11709;SDS011;5911;51.036;6.972;2022-08-01T03:10:42;4.78;;;3.17;;
11709;SDS011;5911;51.036;6.972;2022-08-01T03:13:11;4.13;;;3.40;;
11709;SDS011;5911;51.036;6.972;2022-08-01T03:15:43;4.68;;;2.83;;
11709;SDS011;5911;51.036;6.972;2022-08-01T03:18:13;3.78;;;2.72;;
11709;SDS011;5911;51.036;6.972;2022-08-01T03:20:42;4.68;;;3.03;;
11709;SDS011;5911;51.036;6.972;2022-08-01T03:23:11;5.15;;;2.92;;
11709;SDS011;5911;51.036;6.972;2022-08-01T03:25:40;3.65;;;3.25;;
11709;SDS011;5911;51.036;6.972;2022-08-01T03:28:12;5.43;;;3.38;;
11709;SDS011;5911;51.036;6.972;2022-08-01T03:30:41;3.70;;;3.25;;
11709;SDS011;5911;51.036;6.972;2022-08-01T03:33:11;5.35;;;3.45;;
11709;SDS011;5911;51.036;6.972;2022-08-01T03:35:42;4.80;;;3.88;;
11709;SDS011;5911;51.036;6.972;2022-08-01T03:38:16;4.18;;;3.78;;
11709;SDS011;5911;51.036;6.972;2022-08-01T03:40:47;4.10;;;3.53;;
11709;SDS011;5911;51.036;6.972;2022-08-01T03:43:19;4.70;;;3.45;;
11709;SDS011;5911;51.036;6.972;2022-08-01T03:45:51;6.35;;;4.03;;
11709;SDS011;5911;51.036;6.972;2022-08-01T03:48:22;5.30;;;4.13;;
11709;SDS011;5911;51.036;6.972;2022-08-01T03:50:53;5.07;;;3.80;;
11709;SDS011;5911;51.036;6.972;2022-08-01T03:53:22;4.22;;;3.67;;
11709;SDS011;5911;51.036;6.972;2022-08-01T03:55:52;4.97;;;3.30;;
11709;SDS011;5911;51.036;6.972;2022-08-01T03:58:22;4.10;;;3.72;;
11709;SDS011;5911;51.036;6.972;2022-08-01T04:00:52;6.32;;;4.03;;
11709;SDS011;5911;51.036;6.972;2022-08-01T04:03:21;4.90;;;3.55;;
11709;SDS011;5911;51.036;6.972;2022-08-01T04:05:50;5.57;;;3.83;;
11709;SDS011;5911;51.036;6.972;2022-08-01T04:08:18;6.25;;;4.47;;
11709;SDS011;5911;51.036;6.972;2022-08-01T04:10:46;6.47;;;4.32;;
11709;SDS011;5911;51.036;6.972;2022-08-01T04:13:15;8.55;;;4.57;;
11709;SDS011;5911;51.036;6.972;2022-08-01T04:15:43;5.90;;;4.55;;
11709;SDS011;5911;51.036;6.972;2022-08-01T04:18:13;5.45;;;4.78;;
11709;SDS011;5911;51.036;6.972;2022-08-01T04:20:40;4.80;;;4.22;;
11709;SDS011;5911;51.036;6.972;2022-08-01T04:23:10;8.75;;;5.82;;
11709;SDS011;5911;51.036;6.972;2022-08-01T04:25:38;7.43;;;5.90;;
11709;SDS011;5911;51.036;6.972;2022-08-01T04:28:08;8.95;;;5.80;;
11709;SDS011;5911;51.036;6.972;2022-08-01T04:30:42;7.60;;;5.65;;
11709;SDS011;5911;51.036;6.972;2022-08-01T04:33:14;6.13;;;5.47;;
11709;SDS011;5911;51.036;6.972;2022-08-01T04:35:46;7.15;;;6.10;;
11709;SDS011;5911;51.036;6.972;2022-08-01T04:38:29;6.60;;;5.95;;
11709;SDS011;5911;51.036;6.972;2022-08-01T04:40:59;6.68;;;5.93;;
11709;SDS011;5911;51.036;6.972;2022-08-01T04:43:34;7.35;;;5.35;;
11709;SDS011;5911;51.036;6.972;2022-08-01T04:46:03;6.70;;;6.07;;
11709;SDS011;5911;51.036;6.972;2022-08-01T04:48:36;10.05;;;6.00;;
11709;SDS011;5911;51.036;6.972;2022-08-01T04:51:10;8.45;;;6.40;;
11709;SDS011;5911;51.036;6.972;2022-08-01T04:53:41;12.93;;;7.57;;
11709;SDS011;5911;51.036;6.972;2022-08-01T04:56:10;9.18;;;7.00;;
11709;SDS011;5911;51.036;6.972;2022-08-01T04:58:39;8.73;;;7.28;;
11709;SDS011;5911;51.036;6.972;2022-08-01T05:01:08;8.57;;;6.03;;
11709;SDS011;5911;51.036;6.972;2022-08-01T05:03:37;11.02;;;7.65;;
11709;SDS011;5911;51.036;6.972;2022-08-01T05:06:05;10.75;;;7.25;;
11709;SDS011;5911;51.036;6.972;2022-08-01T05:08:34;11.45;;;7.47;;
11709;SDS011;5911;51.036;6.972;2022-08-01T05:11:02;10.00;;;7.75;;
11709;SDS011;5911;51.036;6.972;2022-08-01T05:13:31;9.70;;;7.97;;
11709;SDS011;5911;51.036;6.972;2022-08-01T05:15:58;12.07;;;7.95;;
11709;SDS011;5911;51.036;6.972;2022-08-01T05:18:29;8.80;;;7.35;;
11709;SDS011;5911;51.036;6.972;2022-08-01T05:20:59;10.70;;;7.85;;
11709;SDS011;5911;51.036;6.972;2022-08-01T05:23:28;10.95;;;7.75;;
11709;SDS011;5911;51.036;6.972;2022-08-01T05:26:08;10.80;;;7.25;;
11709;SDS011;5911;51.036;6.972;2022-08-01T05:28:35;9.95;;;8.15;;
11709;SDS011;5911;51.036;6.972;2022-08-01T05:31:03;11.20;;;8.63;;
11709;SDS011;5911;51.036;6.972;2022-08-01T05:33:31;10.68;;;8.32;;
11709;SDS011;5911;51.036;6.972;2022-08-01T05:36:00;11.52;;;7.90;;
11709;SDS011;5911;51.036;6.972;2022-08-01T05:38:28;12.02;;;9.05;;
11709;SDS011;5911;51.036;6.972;2022-08-01T05:40:56;10.63;;;8.40;;
11709;SDS011;5911;51.036;6.972;2022-08-01T05:43:24;13.02;;;8.25;;
11709;SDS011;5911;51.036;6.972;2022-08-01T05:45:54;10.23;;;8.52;;
11709;SDS011;5911;51.036;6.972;2022-08-01T05:48:25;11.18;;;9.55;;
11709;SDS011;5911;51.036;6.972;2022-08-01T05:50:53;10.50;;;9.18;;
11709;SDS011;5911;51.036;6.972;2022-08-01T05:53:25;13.10;;;10.00;;
11709;SDS011;5911;51.036;6.972;2022-08-01T05:55:53;12.23;;;9.85;;
11709;SDS011;5911;51.036;6.972;2022-08-01T05:58:24;13.73;;;10.48;;
11709;SDS011;5911;51.036;6.972;2022-08-01T06:00:51;14.77;;;9.30;;
11709;SDS011;5911;51.036;6.972;2022-08-01T06:03:19;11.20;;;9.23;;
11709;SDS011;5911;51.036;6.972;2022-08-01T06:05:47;14.75;;;10.48;;
11709;SDS011;5911;51.036;6.972;2022-08-01T06:08:15;13.07;;;10.13;;
11709;SDS011;5911;51.036;6.972;2022-08-01T06:10:44;12.52;;;10.02;;
11709;SDS011;5911;51.036;6.972;2022-08-01T06:13:12;11.20;;;9.35;;
11709;SDS011;5911;51.036;6.972;2022-08-01T06:15:40;10.85;;;9.52;;
11709;SDS011;5911;51.036;6.972;2022-08-01T06:18:08;11.65;;;10.25;;
11709;SDS011;5911;51.036;6.972;2022-08-01T06:20:37;12.63;;;10.68;;
11709;SDS011;5911;51.036;6.972;2022-08-01T06:23:05;10.43;;;9.07;;
11709;SDS011;5911;51.036;6.972;2022-08-01T06:25:54;12.77;;;9.88;;
11709;SDS011;5911;51.036;6.972;2022-08-01T06:28:22;11.55;;;9.70;;
11709;SDS011;5911;51.036;6.972;2022-08-01T06:30:50;10.88;;;9.45;;
11709;SDS011;5911;51.036;6.972;2022-08-01T06:33:18;13.63;;;10.27;;
11709;SDS011;5911;51.036;6.972;2022-08-01T06:35:46;11.57;;;10.38;;
11709;SDS011;5911;51.036;6.972;2022-08-01T06:38:14;12.70;;;10.10;;
11709;SDS011;5911;51.036;6.972;2022-08-01T06:40:42;13.40;;;10.27;;
11709;SDS011;5911;51.036;6.972;2022-08-01T06:43:11;12.63;;;10.13;;
11709;SDS011;5911;51.036;6.972;2022-08-01T06:45:41;9.27;;;8.25;;
11709;SDS011;5911;51.036;6.972;2022-08-01T06:48:09;10.18;;;8.93;;
11709;SDS011;5911;51.036;6.972;2022-08-01T06:50:37;10.15;;;8.55;;
11709;SDS011;5911;51.036;6.972;2022-08-01T06:53:05;11.65;;;8.82;;
11709;SDS011;5911;51.036;6.972;2022-08-01T06:55:34;11.13;;;9.90;;
11709;SDS011;5911;51.036;6.972;2022-08-01T06:58:02;11.70;;;9.52;;
11709;SDS011;5911;51.036;6.972;2022-08-01T07:00:32;9.38;;;8.20;;
11709;SDS011;5911;51.036;6.972;2022-08-01T07:03:00;9.98;;;8.98;;
11709;SDS011;5911;51.036;6.972;2022-08-01T07:05:28;10.63;;;9.52;;
11709;SDS011;5911;51.036;6.972;2022-08-01T07:07:57;10.73;;;9.38;;
11709;SDS011;5911;51.036;6.972;2022-08-01T07:10:25;10.25;;;8.40;;
11709;SDS011;5911;51.036;6.972;2022-08-01T07:12:53;9.40;;;8.38;;
11709;SDS011;5911;51.036;6.972;2022-08-01T07:15:21;8.77;;;7.93;;
11709;SDS011;5911;51.036;6.972;2022-08-01T07:17:55;9.60;;;7.68;;
11709;SDS011;5911;51.036;6.972;2022-08-01T07:20:25;8.77;;;7.95;;
11709;SDS011;5911;51.036;6.972;2022-08-01T07:22:52;8.27;;;7.30;;
11709;SDS011;5911;51.036;6.972;2022-08-01T07:25:22;8.88;;;7.50;;
11709;SDS011;5911;51.036;6.972;2022-08-01T07:27:50;8.50;;;7.30;;
11709;SDS011;5911;51.036;6.972;2022-08-01T07:30:18;8.60;;;7.72;;
11709;SDS011;5911;51.036;6.972;2022-08-01T07:32:46;9.80;;;8.80;;
11709;SDS011;5911;51.036;6.972;2022-08-01T07:35:16;8.25;;;7.45;;
11709;SDS011;5911;51.036;6.972;2022-08-01T07:37:44;7.82;;;7.03;;
11709;SDS011;5911;51.036;6.972;2022-08-01T07:40:15;7.55;;;6.75;;
11709;SDS011;5911;51.036;6.972;2022-08-01T07:42:43;8.48;;;6.13;;
11709;SDS011;5911;51.036;6.972;2022-08-01T07:45:12;7.35;;;6.65;;
11709;SDS011;5911;51.036;6.972;2022-08-01T07:47:40;8.50;;;6.90;;
11709;SDS011;5911;51.036;6.972;2022-08-01T07:50:10;8.18;;;7.18;;
11709;SDS011;5911;51.036;6.972;2022-08-01T07:52:40;9.52;;;7.50;;
11709;SDS011;5911;51.036;6.972;2022-08-01T07:55:09;10.40;;;8.00;;
11709;SDS011;5911;51.036;6.972;2022-08-01T07:57:42;10.10;;;7.88;;
11709;SDS011;5911;51.036;6.972;2022-08-01T08:00:10;8.43;;;6.25;;
11709;SDS011;5911;51.036;6.972;2022-08-01T08:02:39;7.55;;;6.05;;
11709;SDS011;5911;51.036;6.972;2022-08-01T08:05:07;6.47;;;5.55;;
11709;SDS011;5911;51.036;6.972;2022-08-01T08:07:37;5.90;;;4.78;;
11709;SDS011;5911;51.036;6.972;2022-08-01T08:10:06;7.95;;;4.53;;
11709;SDS011;5911;51.036;6.972;2022-08-01T08:12:35;6.20;;;4.50;;
11709;SDS011;5911;51.036;6.972;2022-08-01T08:15:04;5.45;;;4.95;;
11709;SDS011;5911;51.036;6.972;2022-08-01T08:17:33;6.15;;;5.00;;
11709;SDS011;5911;51.036;6.972;2022-08-01T08:20:02;5.65;;;5.05;;
11709;SDS011;5911;51.036;6.972;2022-08-01T08:22:34;5.85;;;4.90;;
11709;SDS011;5911;51.036;6.972;2022-08-01T08:25:03;4.28;;;3.88;;
11709;SDS011;5911;51.036;6.972;2022-08-01T08:27:39;5.82;;;4.60;;
11709;SDS011;5911;51.036;6.972;2022-08-01T08:30:07;4.43;;;3.97;;
11709;SDS011;5911;51.036;6.972;2022-08-01T08:32:37;4.90;;;4.40;;
11709;SDS011;5911;51.036;6.972;2022-08-01T08:35:05;4.88;;;4.47;;
11709;SDS011;5911;51.036;6.972;2022-08-01T08:37:37;5.82;;;4.35;;
11709;SDS011;5911;51.036;6.972;2022-08-01T08:40:13;7.25;;;5.28;;
11709;SDS011;5911;51.036;6.972;2022-08-01T08:42:44;4.57;;;4.18;;
11709;SDS011;5911;51.036;6.972;2022-08-01T08:45:13;4.22;;;3.55;;
11709;SDS011;5911;51.036;6.972;2022-08-01T08:47:41;5.47;;;3.83;;
11709;SDS011;5911;51.036;6.972;2022-08-01T08:50:12;4.70;;;4.30;;
11709;SDS011;5911;51.036;6.972;2022-08-01T08:52:41;5.35;;;4.85;;
11709;SDS011;5911;51.036;6.972;2022-08-01T08:55:11;5.65;;;4.15;;
11709;SDS011;5911;51.036;6.972;2022-08-01T08:57:40;5.28;;;4.50;;
11709;SDS011;5911;51.036;6.972;2022-08-01T09:00:12;6.20;;;4.03;;
11709;SDS011;5911;51.036;6.972;2022-08-01T09:02:42;5.20;;;4.25;;
11709;SDS011;5911;51.036;6.972;2022-08-01T09:05:12;4.10;;;3.65;;
11709;SDS011;5911;51.036;6.972;2022-08-01T09:07:45;4.95;;;4.20;;
11709;SDS011;5911;51.036;6.972;2022-08-01T09:10:13;4.18;;;3.78;;
11709;SDS011;5911;51.036;6.972;2022-08-01T09:12:54;6.68;;;4.68;;
11709;SDS011;5911;51.036;6.972;2022-08-01T09:15:37;4.70;;;4.30;;
11709;SDS011;5911;51.036;6.972;2022-08-01T09:18:07;5.40;;;4.90;;
11709;SDS011;5911;51.036;6.972;2022-08-01T09:20:35;5.47;;;4.50;;
11709;SDS011;5911;51.036;6.972;2022-08-01T09:23:03;4.93;;;4.38;;
11709;SDS011;5911;51.036;6.972;2022-08-01T09:25:31;4.75;;;4.35;;
11709;SDS011;5911;51.036;6.972;2022-08-01T09:28:28;5.18;;;4.22;;
11709;SDS011;5911;51.036;6.972;2022-08-01T09:31:04;4.25;;;3.85;;
11709;SDS011;5911;51.036;6.972;2022-08-01T09:33:46;5.53;;;4.00;;
11709;SDS011;5911;51.036;6.972;2022-08-01T09:36:18;4.88;;;4.13;;
11709;SDS011;5911;51.036;6.972;2022-08-01T09:38:48;4.30;;;3.83;;
11709;SDS011;5911;51.036;6.972;2022-08-01T09:41:17;5.93;;;4.10;;
11709;SDS011;5911;51.036;6.972;2022-08-01T09:44:06;4.32;;;3.50;;
11709;SDS011;5911;51.036;6.972;2022-08-01T09:46:34;4.78;;;4.38;;
11709;SDS011;5911;51.036;6.972;2022-08-01T09:49:05;6.00;;;4.68;;
11709;SDS011;5911;51.036;6.972;2022-08-01T09:51:36;4.88;;;3.90;;
11709;SDS011;5911;51.036;6.972;2022-08-01T09:54:30;4.95;;;4.25;;
11709;SDS011;5911;51.036;6.972;2022-08-01T09:57:12;4.57;;;4.15;;
11709;SDS011;5911;51.036;6.972;2022-08-01T09:59:43;5.40;;;4.20;;
11709;SDS011;5911;51.036;6.972;2022-08-01T10:02:28;4.68;;;4.28;;
11709;SDS011;5911;51.036;6.972;2022-08-01T10:04:59;4.32;;;3.92;;
11709;SDS011;5911;51.036;6.972;2022-08-01T10:07:33;4.78;;;3.97;;
11709;SDS011;5911;51.036;6.972;2022-08-01T10:10:10;4.93;;;4.35;;
11709;SDS011;5911;51.036;6.972;2022-08-01T10:12:40;4.65;;;4.25;;
11709;SDS011;5911;51.036;6.972;2022-08-01T10:15:12;5.32;;;4.70;;
11709;SDS011;5911;51.036;6.972;2022-08-01T10:17:45;6.03;;;4.75;;
11709;SDS011;5911;51.036;6.972;2022-08-01T10:20:23;3.60;;;3.30;;
11709;SDS011;5911;51.036;6.972;2022-08-01T10:22:58;4.65;;;3.90;;
11709;SDS011;5911;51.036;6.972;2022-08-01T10:25:33;4.43;;;4.03;;
11709;SDS011;5911;51.036;6.972;2022-08-01T10:28:10;4.88;;;4.43;;
11709;SDS011;5911;51.036;6.972;2022-08-01T10:30:46;4.03;;;3.58;;
11709;SDS011;5911;51.036;6.972;2022-08-01T10:33:15;4.45;;;3.67;;
11709;SDS011;5911;51.036;6.972;2022-08-01T10:36:05;4.32;;;3.92;;
11709;SDS011;5911;51.036;6.972;2022-08-01T10:38:34;4.43;;;4.03;;
11709;SDS011;5911;51.036;6.972;2022-08-01T10:41:03;4.18;;;3.70;;
11709;SDS011;5911;51.036;6.972;2022-08-01T10:43:34;5.68;;;4.13;;
11709;SDS011;5911;51.036;6.972;2022-08-01T10:46:03;5.05;;;4.32;;
11709;SDS011;5911;51.036;6.972;2022-08-01T10:48:34;4.55;;;4.00;;
11709;SDS011;5911;51.036;6.972;2022-08-01T10:51:09;5.50;;;3.97;;
11709;SDS011;5911;51.036;6.972;2022-08-01T10:53:47;3.75;;;3.45;;
11709;SDS011;5911;51.036;6.972;2022-08-01T10:56:20;3.75;;;3.38;;
11709;SDS011;5911;51.036;6.972;2022-08-01T10:58:59;4.68;;;4.00;;
11709;SDS011;5911;51.036;6.972;2022-08-01T11:01:38;3.50;;;3.20;;
11709;SDS011;5911;51.036;6.972;2022-08-01T11:04:11;3.60;;;3.05;;
11709;SDS011;5911;51.036;6.972;2022-08-01T11:06:54;3.90;;;3.33;;
11709;SDS011;5911;51.036;6.972;2022-08-01T11:09:38;4.80;;;3.85;;
11709;SDS011;5911;51.036;6.972;2022-08-01T11:12:09;3.80;;;3.50;;
11709;SDS011;5911;51.036;6.972;2022-08-01T11:17:57;4.78;;;3.25;;
11709;SDS011;5911;51.036;6.972;2022-08-01T11:20:28;3.78;;;3.30;;
11709;SDS011;5911;51.036;6.972;2022-08-01T11:26:08;3.45;;;3.13;;
11709;SDS011;5911;51.036;6.972;2022-08-01T11:28:37;3.70;;;3.40;;
11709;SDS011;5911;51.036;6.972;2022-08-01T11:31:27;3.92;;;3.40;;
11709;SDS011;5911;51.036;6.972;2022-08-01T11:34:05;3.78;;;3.38;;
11709;SDS011;5911;51.036;6.972;2022-08-01T11:36:33;3.28;;;2.97;;
11709;SDS011;5911;51.036;6.972;2022-08-01T11:39:21;3.15;;;2.95;;
11709;SDS011;5911;51.036;6.972;2022-08-01T11:41:49;2.75;;;2.50;;
11709;SDS011;5911;51.036;6.972;2022-08-01T11:44:22;6.03;;;3.28;;
11709;SDS011;5911;51.036;6.972;2022-08-01T11:46:57;2.88;;;2.65;;
11709;SDS011;5911;51.036;6.972;2022-08-01T11:49:46;3.88;;;2.97;;
11709;SDS011;5911;51.036;6.972;2022-08-01T11:52:17;3.30;;;3.00;;
11709;SDS011;5911;51.036;6.972;2022-08-01T11:54:46;3.28;;;2.97;;
11709;SDS011;5911;51.036;6.972;2022-08-01T11:57:18;2.90;;;2.63;;
11709;SDS011;5911;51.036;6.972;2022-08-01T11:59:49;3.78;;;2.45;;
11709;SDS011;5911;51.036;6.972;2022-08-01T12:02:37;3.03;;;2.78;;
11709;SDS011;5911;51.036;6.972;2022-08-01T12:05:07;3.10;;;2.40;;
11709;SDS011;5911;51.036;6.972;2022-08-01T12:10:35;2.10;;;1.90;;
11709;SDS011;5911;51.036;6.972;2022-08-01T12:13:15;2.10;;;1.90;;
11709;SDS011;5911;51.036;6.972;2022-08-01T12:15:44;1.90;;;1.77;;
11709;SDS011;5911;51.036;6.972;2022-08-01T12:18:13;1.90;;;1.77;;
11709;SDS011;5911;51.036;6.972;2022-08-01T12:20:42;4.30;;;2.15;;
11709;SDS011;5911;51.036;6.972;2022-08-01T12:23:22;2.53;;;2.33;;
11709;SDS011;5911;51.036;6.972;2022-08-01T12:25:50;2.42;;;2.08;;
11709;SDS011;5911;51.036;6.972;2022-08-01T12:28:19;2.28;;;1.92;;
11709;SDS011;5911;51.036;6.972;2022-08-01T12:30:49;1.80;;;1.70;;
11709;SDS011;5911;51.036;6.972;2022-08-01T12:33:17;2.80;;;1.65;;
11709;SDS011;5911;51.036;6.972;2022-08-01T12:35:48;1.77;;;1.67;;
11709;SDS011;5911;51.036;6.972;2022-08-01T12:38:18;3.05;;;1.95;;
11709;SDS011;5911;51.036;6.972;2022-08-01T12:40:48;1.98;;;1.60;;
11709;SDS011;5911;51.036;6.972;2022-08-01T12:43:19;1.60;;;1.50;;
11709;SDS011;5911;51.036;6.972;2022-08-01T12:45:54;2.03;;;1.60;;
11709;SDS011;5911;51.036;6.972;2022-08-01T12:48:25;2.75;;;1.45;;
11709;SDS011;5911;51.036;6.972;2022-08-01T12:50:55;1.40;;;1.30;;
11709;SDS011;5911;51.036;6.972;2022-08-01T12:53:26;1.58;;;1.48;;
11709;SDS011;5911;51.036;6.972;2022-08-01T12:56:07;2.42;;;1.40;;
11709;SDS011;5911;51.036;6.972;2022-08-01T12:58:36;2.33;;;1.20;;
11709;SDS011;5911;51.036;6.972;2022-08-01T13:01:05;1.73;;;1.20;;
11709;SDS011;5911;51.036;6.972;2022-08-01T13:03:34;1.27;;;1.17;;
11709;SDS011;5911;51.036;6.972;2022-08-01T13:06:10;1.77;;;1.17;;
11709;SDS011;5911;51.036;6.972;2022-08-01T13:08:42;1.83;;;1.00;;
11709;SDS011;5911;51.036;6.972;2022-08-01T13:11:11;1.30;;;1.20;;
11709;SDS011;5911;51.036;6.972;2022-08-01T13:13:42;0.98;;;0.98;;
11709;SDS011;5911;51.036;6.972;2022-08-01T13:16:14;1.38;;;1.08;;
11709;SDS011;5911;51.036;6.972;2022-08-01T13:19:04;1.00;;;0.95;;
11709;SDS011;5911;51.036;6.972;2022-08-01T13:21:34;4.63;;;1.20;;
11709;SDS011;5911;51.036;6.972;2022-08-01T13:24:24;0.95;;;0.93;;
11709;SDS011;5911;51.036;6.972;2022-08-01T13:26:54;0.90;;;0.90;;
11709;SDS011;5911;51.036;6.972;2022-08-01T13:29:31;1.02;;;0.75;;
11709;SDS011;5911;51.036;6.972;2022-08-01T13:32:01;0.98;;;0.85;;
11709;SDS011;5911;51.036;6.972;2022-08-01T13:35:00;1.48;;;1.00;;
11709;SDS011;5911;51.036;6.972;2022-08-01T13:37:31;6.32;;;2.05;;
11709;SDS011;5911;51.036;6.972;2022-08-01T13:39:59;1.40;;;1.08;;
11709;SDS011;5911;51.036;6.972;2022-08-01T13:42:28;0.98;;;0.98;;
11709;SDS011;5911;51.036;6.972;2022-08-01T13:44:56;1.38;;;1.20;;
11709;SDS011;5911;51.036;6.972;2022-08-01T13:47:24;1.65;;;1.10;;
11709;SDS011;5911;51.036;6.972;2022-08-01T13:49:58;1.40;;;1.13;;
11709;SDS011;5911;51.036;6.972;2022-08-01T13:52:29;3.35;;;1.45;;
11709;SDS011;5911;51.036;6.972;2022-08-01T13:54:59;1.13;;;0.93;;
11709;SDS011;5911;51.036;6.972;2022-08-01T13:57:28;0.90;;;0.90;;
11709;SDS011;5911;51.036;6.972;2022-08-01T14:00:03;1.48;;;1.20;;
11709;SDS011;5911;51.036;6.972;2022-08-01T14:02:37;1.27;;;0.90;;
11709;SDS011;5911;51.036;6.972;2022-08-01T14:05:05;1.25;;;1.13;;
11709;SDS011;5911;51.036;6.972;2022-08-01T14:07:35;1.60;;;1.00;;
11709;SDS011;5911;51.036;6.972;2022-08-01T14:10:04;2.25;;;0.93;;
11709;SDS011;5911;51.036;6.972;2022-08-01T14:12:45;1.23;;;1.05;;
11709;SDS011;5911;51.036;6.972;2022-08-01T14:15:13;1.20;;;1.10;;
11709;SDS011;5911;51.036;6.972;2022-08-01T14:18:01;1.27;;;1.17;;
11709;SDS011;5911;51.036;6.972;2022-08-01T14:20:31;1.20;;;1.10;;
11709;SDS011;5911;51.036;6.972;2022-08-01T14:23:00;1.35;;;1.10;;
11709;SDS011;5911;51.036;6.972;2022-08-01T14:25:28;1.10;;;1.00;;
11709;SDS011;5911;51.036;6.972;2022-08-01T14:28:16;1.55;;;1.30;;
11709;SDS011;5911;51.036;6.972;2022-08-01T14:30:44;2.75;;;1.40;;
11709;SDS011;5911;51.036;6.972;2022-08-01T14:33:15;1.60;;;1.20;;
11709;SDS011;5911;51.036;6.972;2022-08-01T14:35:43;2.05;;;1.70;;
11709;SDS011;5911;51.036;6.972;2022-08-01T14:38:32;1.27;;;1.13;;
11709;SDS011;5911;51.036;6.972;2022-08-01T14:41:00;1.33;;;1.23;;
11709;SDS011;5911;51.036;6.972;2022-08-01T14:43:29;1.48;;;1.38;;
11709;SDS011;5911;51.036;6.972;2022-08-01T14:45:59;1.60;;;1.50;;
11709;SDS011;5911;51.036;6.972;2022-08-01T14:48:27;1.85;;;1.30;;
11709;SDS011;5911;51.036;6.972;2022-08-01T14:50:55;1.27;;;1.10;;
11709;SDS011;5911;51.036;6.972;2022-08-01T14:53:23;1.50;;;1.40;;
11709;SDS011;5911;51.036;6.972;2022-08-01T14:55:53;2.60;;;1.60;;
11709;SDS011;5911;51.036;6.972;2022-08-01T14:58:20;2.17;;;1.98;;
11709;SDS011;5911;51.036;6.972;2022-08-01T15:00:48;2.05;;;1.80;;
11709;SDS011;5911;51.036;6.972;2022-08-01T15:03:24;2.35;;;1.42;;
11709;SDS011;5911;51.036;6.972;2022-08-01T15:05:52;1.27;;;1.17;;
11709;SDS011;5911;51.036;6.972;2022-08-01T15:08:20;2.03;;;1.13;;
11709;SDS011;5911;51.036;6.972;2022-08-01T15:10:48;1.40;;;1.30;;
11709;SDS011;5911;51.036;6.972;2022-08-01T15:13:17;2.47;;;1.63;;
11709;SDS011;5911;51.036;6.972;2022-08-01T15:15:45;1.98;;;1.25;;
11709;SDS011;5911;51.036;6.972;2022-08-01T15:18:13;1.42;;;1.33;;
11709;SDS011;5911;51.036;6.972;2022-08-01T15:20:41;2.50;;;2.13;;
11709;SDS011;5911;51.036;6.972;2022-08-01T15:23:09;3.50;;;1.85;;
11709;SDS011;5911;51.036;6.972;2022-08-01T15:25:37;1.73;;;1.50;;
11709;SDS011;5911;51.036;6.972;2022-08-01T15:28:07;1.50;;;1.40;;
11709;SDS011;5911;51.036;6.972;2022-08-01T15:30:36;1.83;;;1.50;;
11709;SDS011;5911;51.036;6.972;2022-08-01T15:33:05;2.42;;;1.88;;
11709;SDS011;5911;51.036;6.972;2022-08-01T15:35:32;3.67;;;1.75;;